createdAt,value
2023-02-15T00:02:49.290Z,100.00
2023-02-15T00:10:24.516Z,100.00
2023-02-15T00:17:59.085Z,100.00
2023-02-15T00:25:34.422Z,100.00
2023-02-15T00:33:08.452Z,100.00
2023-02-15T00:40:43.541Z,100.00
2023-02-15T00:48:17.366Z,100.00
2023-02-15T00:55:52.479Z,100.00
2023-02-15T01:03:26.372Z,100.00
2023-02-15T01:11:05.821Z,100.00
2023-02-15T01:18:39.613Z,100.00
2023-02-15T01:26:15.229Z,100.00
2023-02-15T01:33:49.819Z,100.00
2023-02-15T01:41:25.058Z,100.00
2023-02-15T01:49:04.182Z,100.00
2023-02-15T01:56:41.919Z,100.00
2023-02-15T02:04:20.836Z,100.00
2023-02-15T02:11:56.186Z,100.00
2023-02-15T02:20:08.530Z,100.00
2023-02-15T02:27:50.109Z,100.00
2023-02-15T02:35:32.114Z,100.00
2023-02-15T02:43:13.894Z,100.00
2023-02-15T02:50:49.763Z,100.00
2023-02-15T02:58:27.511Z,100.00
2023-02-15T03:06:06.817Z,100.00
2023-02-15T03:13:41.888Z,100.00
2023-02-15T03:21:23.131Z,100.00
2023-02-15T03:29:01.003Z,100.00
2023-02-15T03:36:42.504Z,100.00
2023-02-15T03:44:20.915Z,100.00
2023-02-15T03:51:59.672Z,100.00
2023-02-15T03:59:51.062Z,100.00
2023-02-15T04:07:26.258Z,100.00
2023-02-15T04:15:17.570Z,100.00
2023-02-15T04:23:10.539Z,100.00
2023-02-15T04:30:44.316Z,100.00
2023-02-15T04:38:19.524Z,100.00
2023-02-15T04:45:53.365Z,100.00
2023-02-15T04:53:28.981Z,100.00
2023-02-15T05:01:03.100Z,100.00
2023-02-15T05:08:38.399Z,100.00
2023-02-15T05:16:12.277Z,100.00
2023-02-15T05:23:47.575Z,100.00
2023-02-15T05:31:22.218Z,100.00
2023-02-15T05:38:57.572Z,100.00
2023-02-15T05:46:31.625Z,100.00
2023-02-15T05:54:07.285Z,100.00
2023-02-15T06:01:41.145Z,100.00
2023-02-15T06:09:19.246Z,100.00
2023-02-15T06:16:53.141Z,100.00
2023-02-15T06:24:28.630Z,100.00
2023-02-15T06:32:02.631Z,100.00
2023-02-15T06:39:37.964Z,100.00
2023-02-15T06:47:11.961Z,100.00
2023-02-15T06:54:47.105Z,100.00
2023-02-15T07:02:20.836Z,100.00
2023-02-15T07:09:56.056Z,100.00
2023-02-15T07:17:38.055Z,100.00
2023-02-15T07:25:14.161Z,100.00
2023-02-15T07:33:05.984Z,100.00
2023-02-15T07:40:41.365Z,100.00
2023-02-15T07:48:15.296Z,100.00
2023-02-15T07:55:50.492Z,100.00
2023-02-15T08:03:28.632Z,100.00
2023-02-15T08:11:23.409Z,100.00
2023-02-15T08:18:57.423Z,100.00
2023-02-15T08:26:33.714Z,100.00
2023-02-15T08:34:07.961Z,100.00
2023-02-15T08:41:45.758Z,100.00
2023-02-15T08:49:21.378Z,100.00
2023-02-15T08:56:56.613Z,100.00
2023-02-15T09:04:30.762Z,100.00
2023-02-15T09:12:06.285Z,100.00
2023-02-15T09:19:40.075Z,100.00
2023-02-15T09:27:15.361Z,100.00
2023-02-15T09:34:49.212Z,100.00
2023-02-15T09:42:56.297Z,100.00
2023-02-15T09:50:37.045Z,100.00
2023-02-15T09:58:20.931Z,100.00
2023-02-15T10:06:12.809Z,100.00
2023-02-15T10:13:56.449Z,100.00
2023-02-15T10:21:43.666Z,100.00
2023-02-15T10:29:30.392Z,100.00
2023-02-15T10:37:22.203Z,100.00
2023-02-15T10:45:12.468Z,100.00
2023-02-15T10:53:01.280Z,100.00
2023-02-15T11:00:44.086Z,100.00
2023-02-15T11:08:19.211Z,100.00
2023-02-15T11:15:59.435Z,100.00
2023-02-15T11:23:37.755Z,100.00
2023-02-15T11:31:19.120Z,100.00
2023-02-15T11:38:59.287Z,100.00
2023-02-15T11:46:34.617Z,100.00
2023-02-15T11:54:10.868Z,100.00
2023-02-15T12:01:48.019Z,100.00
2023-02-15T12:09:32.581Z,100.00
2023-02-15T12:17:15.756Z,100.00
2023-02-15T12:24:52.233Z,100.00
2023-02-15T12:32:30.688Z,100.00
2023-02-15T12:40:22.345Z,100.00
2023-02-15T12:48:16.938Z,100.00
2023-02-15T12:55:56.456Z,100.00
2023-02-15T13:03:32.357Z,100.00
2023-02-15T13:11:10.363Z,100.00
2023-02-15T13:18:47.819Z,100.00
2023-02-15T13:26:24.573Z,100.00
2023-02-15T13:34:05.217Z,100.00
2023-02-15T13:41:52.731Z,100.00
2023-02-15T13:49:42.073Z,100.00
2023-02-15T13:57:41.284Z,100.00
2023-02-15T14:05:29.313Z,100.00
2023-02-15T14:13:33.160Z,100.00
2023-02-15T14:21:17.455Z,100.00
2023-02-15T14:29:01.435Z,100.00
2023-02-15T14:36:37.063Z,100.00
2023-02-15T14:44:16.272Z,100.00
2023-02-15T14:52:00.045Z,99.99
2023-02-15T14:59:41.423Z,97.16
2023-02-15T15:07:23.216Z,92.52
2023-02-15T15:14:57.088Z,88.61
2023-02-15T15:22:33.487Z,88.33
2023-02-15T15:30:40.701Z,91.24
2023-02-15T15:38:35.204Z,92.76
2023-02-15T15:46:31.814Z,94.31
2023-02-15T15:54:07.401Z,96.40
2023-02-15T16:01:44.705Z,98.64
2023-02-15T16:09:22.564Z,100.00
2023-02-15T16:16:59.697Z,100.00
2023-02-15T16:24:55.287Z,100.00
2023-02-15T16:32:29.596Z,100.00
2023-02-15T16:40:05.475Z,100.00
2023-02-15T16:47:43.562Z,100.00
2023-02-15T16:55:24.560Z,100.00
2023-02-15T17:03:02.047Z,100.00
2023-02-15T17:10:43.071Z,100.00
2023-02-15T17:18:20.702Z,100.00
2023-02-15T17:25:56.367Z,100.00
2023-02-15T17:33:40.408Z,100.00
2023-02-15T17:41:15.710Z,100.00
2023-02-15T17:48:51.403Z,100.00
2023-02-15T17:56:26.630Z,100.00
2023-02-15T18:04:18.086Z,100.00
2023-02-15T18:11:53.512Z,100.00
2023-02-15T18:19:28.014Z,100.00
2023-02-15T18:27:03.285Z,100.00
2023-02-15T18:34:41.066Z,100.00
2023-02-15T18:42:23.086Z,100.00
2023-02-15T18:49:57.042Z,100.00
2023-02-15T18:57:33.556Z,100.00
2023-02-15T19:05:07.682Z,100.00
2023-02-15T19:12:43.118Z,100.00
2023-02-15T19:20:19.608Z,100.00
2023-02-15T19:27:55.908Z,100.00
2023-02-15T19:35:32.973Z,100.00
2023-02-15T19:43:16.111Z,100.00
2023-02-15T19:50:50.633Z,100.00
2023-02-15T19:58:25.864Z,100.00
2023-02-15T20:05:59.974Z,100.00
2023-02-15T20:13:35.344Z,100.00
2023-02-15T20:21:16.477Z,100.00
2023-02-15T20:28:52.615Z,100.00
2023-02-15T20:36:26.363Z,100.00
2023-02-15T20:44:01.871Z,100.00
2023-02-15T20:51:35.929Z,100.00
2023-02-15T20:59:21.592Z,100.00
2023-02-15T21:06:56.092Z,100.00
2023-02-15T21:14:31.097Z,100.00
2023-02-15T21:22:05.161Z,100.00
2023-02-15T21:29:40.470Z,100.00
2023-02-15T21:37:31.499Z,100.00
2023-02-15T21:45:32.855Z,100.00
2023-02-15T21:53:08.586Z,100.00
2023-02-15T22:00:45.046Z,100.00
2023-02-15T22:08:19.942Z,100.00
2023-02-15T22:15:55.313Z,100.00
2023-02-15T22:23:29.119Z,100.00
2023-02-15T22:31:06.764Z,100.00
2023-02-15T22:38:41.072Z,100.00
2023-02-15T22:46:19.967Z,100.00
2023-02-15T22:53:53.815Z,100.00
2023-02-15T23:01:32.800Z,100.00
2023-02-15T23:09:06.716Z,100.00
2023-02-15T23:16:42.197Z,100.00
2023-02-15T23:24:20.847Z,100.00
2023-02-15T23:31:56.999Z,100.00
2023-02-15T23:39:48.588Z,100.00
2023-02-15T23:47:42.622Z,100.00
2023-02-15T23:55:17.211Z,100.00
